sensor_id;sensor_type;location;lat;lon;timestamp;pressure;altitude;pressure_sealevel;temperature;humidity
64368;BME280;50692;53.314;-6.300;2023-07-20T00:01:15;101523.09;;;16.82;81.59
64368;BME280;50692;53.314;-6.300;2023-07-20T00:04:01;101520.41;;;16.82;81.45
64368;BME280;50692;53.314;-6.300;2023-07-20T00:06:47;101514.22;;;16.81;81.14
64368;BME280;50692;53.314;-6.300;2023-07-20T00:09:33;101514.53;;;16.76;80.87
64368;BME280;50692;53.314;-6.300;2023-07-20T00:12:19;101519.66;;;16.79;80.59
64368;BME280;50692;53.314;-6.300;2023-07-20T00:15:05;101517.09;;;16.78;80.96
64368;BME280;50692;53.314;-6.300;2023-07-20T00:17:51;101524.25;;;16.77;80.92
64368;BME280;50692;53.314;-6.300;2023-07-20T00:20:37;101524.34;;;16.76;81.08
64368;BME280;50692;53.314;-6.300;2023-07-20T00:23:22;101522.72;;;16.73;81.22
64368;BME280;50692;53.314;-6.300;2023-07-20T00:26:08;101517.56;;;16.70;81.29
64368;BME280;50692;53.314;-6.300;2023-07-20T00:28:54;101516.81;;;16.68;81.62
64368;BME280;50692;53.314;-6.300;2023-07-20T00:31:40;101516.81;;;16.68;81.73
64368;BME280;50692;53.314;-6.300;2023-07-20T00:34:26;101522.16;;;16.68;81.44
64368;BME280;50692;53.314;-6.300;2023-07-20T00:37:11;101524.94;;;16.67;81.50
64368;BME280;50692;53.314;-6.300;2023-07-20T00:39:58;101523.09;;;16.67;81.43
64368;BME280;50692;53.314;-6.300;2023-07-20T00:42:44;101526.75;;;16.66;81.67
64368;BME280;50692;53.314;-6.300;2023-07-20T00:45:29;101522.25;;;16.67;81.78
64368;BME280;50692;53.314;-6.300;2023-07-20T00:48:16;101512.38;;;16.54;81.93
64368;BME280;50692;53.314;-6.300;2023-07-20T00:51:02;101520.94;;;16.60;82.04
64368;BME280;50692;53.314;-6.300;2023-07-20T00:53:48;101515.81;;;16.57;82.38
64368;BME280;50692;53.314;-6.300;2023-07-20T00:56:34;101520.59;;;16.51;82.50
64368;BME280;50692;53.314;-6.300;2023-07-20T00:59:20;101524.41;;;16.47;82.62
64368;BME280;50692;53.314;-6.300;2023-07-20T01:02:06;101524.63;;;16.44;82.89
64368;BME280;50692;53.314;-6.300;2023-07-20T01:04:52;101521.84;;;16.46;82.70
64368;BME280;50692;53.314;-6.300;2023-07-20T01:08:02;101522.38;;;16.51;82.68
64368;BME280;50692;53.314;-6.300;2023-07-20T01:10:56;101521.72;;;16.47;82.45
64368;BME280;50692;53.314;-6.300;2023-07-20T01:13:45;101526.03;;;16.50;82.02
64368;BME280;50692;53.314;-6.300;2023-07-20T01:16:32;101528.22;;;16.43;82.32
64368;BME280;50692;53.314;-6.300;2023-07-20T01:19:18;101525.56;;;16.43;82.63
64368;BME280;50692;53.314;-6.300;2023-07-20T01:25:49;101516.69;;;16.43;83.10
64368;BME280;50692;53.314;-6.300;2023-07-20T01:31:30;101519.47;;;16.41;83.02
64368;BME280;50692;53.314;-6.300;2023-07-20T01:34:18;101506.41;;;16.37;82.80
64368;BME280;50692;53.314;-6.300;2023-07-20T01:37:05;101514.41;;;16.37;83.14
64368;BME280;50692;53.314;-6.300;2023-07-20T01:39:53;101499.75;;;16.29;83.40
64368;BME280;50692;53.314;-6.300;2023-07-20T01:42:47;101506.72;;;16.32;83.44
64368;BME280;50692;53.314;-6.300;2023-07-20T01:45:33;101509.31;;;16.34;83.11
64368;BME280;50692;53.314;-6.300;2023-07-20T01:48:18;101507.56;;;16.33;83.14
64368;BME280;50692;53.314;-6.300;2023-07-20T01:51:04;101503.31;;;16.30;83.38
64368;BME280;50692;53.314;-6.300;2023-07-20T01:53:50;101504.34;;;16.27;83.36
64368;BME280;50692;53.314;-6.300;2023-07-20T01:56:36;101500.19;;;16.23;83.50
64368;BME280;50692;53.314;-6.300;2023-07-20T01:59:22;101496.94;;;16.18;83.83
64368;BME280;50692;53.314;-6.300;2023-07-20T02:02:07;101496.69;;;15.94;85.46
64368;BME280;50692;53.314;-6.300;2023-07-20T02:04:54;101502.47;;;16.01;85.55
64368;BME280;50692;53.314;-6.300;2023-07-20T02:07:39;101490.28;;;15.97;85.53
64368;BME280;50692;53.314;-6.300;2023-07-20T02:10:25;101490.59;;;15.92;85.78
64368;BME280;50692;53.314;-6.300;2023-07-20T02:13:11;101484.41;;;16.06;85.25
64368;BME280;50692;53.314;-6.300;2023-07-20T02:15:57;101492.75;;;16.14;84.73
64368;BME280;50692;53.314;-6.300;2023-07-20T02:18:42;101490.94;;;16.15;84.89
64368;BME280;50692;53.314;-6.300;2023-07-20T02:21:28;101487.41;;;16.14;84.66
64368;BME280;50692;53.314;-6.300;2023-07-20T02:24:14;101484.75;;;16.14;84.63
64368;BME280;50692;53.314;-6.300;2023-07-20T02:27:00;101488.28;;;16.15;84.66
64368;BME280;50692;53.314;-6.300;2023-07-20T02:29:46;101494.47;;;16.15;84.86
64368;BME280;50692;53.314;-6.300;2023-07-20T02:32:31;101490.94;;;16.15;85.01
64368;BME280;50692;53.314;-6.300;2023-07-20T02:35:17;101491.78;;;16.15;84.86
64368;BME280;50692;53.314;-6.300;2023-07-20T02:38:03;101479.22;;;16.17;84.78
64368;BME280;50692;53.314;-6.300;2023-07-20T02:40:49;101484.44;;;16.19;84.68
64368;BME280;50692;53.314;-6.300;2023-07-20T02:43:35;101482.75;;;16.18;84.78
64368;BME280;50692;53.314;-6.300;2023-07-20T02:46:22;101481.13;;;16.15;84.67
64368;BME280;50692;53.314;-6.300;2023-07-20T02:49:07;101470.69;;;16.12;84.81
64368;BME280;50692;53.314;-6.300;2023-07-20T02:52:00;101460.47;;;16.04;84.70
64368;BME280;50692;53.314;-6.300;2023-07-20T02:54:46;101470.03;;;16.09;84.74
64368;BME280;50692;53.314;-6.300;2023-07-20T02:57:31;101467.63;;;16.04;84.58
64368;BME280;50692;53.314;-6.300;2023-07-20T03:00:17;101473.91;;;16.03;84.77
64368;BME280;50692;53.314;-6.300;2023-07-20T03:03:04;101469.56;;;16.02;85.05
64368;BME280;50692;53.314;-6.300;2023-07-20T03:05:55;101458.72;;;15.91;85.08
64368;BME280;50692;53.314;-6.300;2023-07-20T03:08:43;101462.31;;;15.90;85.13
64368;BME280;50692;53.314;-6.300;2023-07-20T03:11:32;101468.78;;;16.00;85.37
64368;BME280;50692;53.314;-6.300;2023-07-20T03:14:19;101461.47;;;15.89;84.90
64368;BME280;50692;53.314;-6.300;2023-07-20T03:17:05;101468.59;;;15.89;85.17
64368;BME280;50692;53.314;-6.300;2023-07-20T03:19:51;101464.13;;;15.89;84.99
64368;BME280;50692;53.314;-6.300;2023-07-20T03:22:37;101464.44;;;15.85;85.14
64368;BME280;50692;53.314;-6.300;2023-07-20T03:25:22;101461.28;;;15.92;84.72
64368;BME280;50692;53.314;-6.300;2023-07-20T03:28:08;101454.91;;;15.80;85.32
64368;BME280;50692;53.314;-6.300;2023-07-20T03:30:58;101463.84;;;15.79;85.55
64368;BME280;50692;53.314;-6.300;2023-07-20T03:33:44;101454.44;;;15.74;85.63
64368;BME280;50692;53.314;-6.300;2023-07-20T03:36:29;101459.00;;;15.72;85.98
64368;BME280;50692;53.314;-6.300;2023-07-20T03:39:17;101460.25;;;15.66;86.55
64368;BME280;50692;53.314;-6.300;2023-07-20T03:42:03;101455.84;;;15.65;86.27
64368;BME280;50692;53.314;-6.300;2023-07-20T03:44:48;101465.75;;;15.63;86.38
64368;BME280;50692;53.314;-6.300;2023-07-20T03:47:34;101462.13;;;15.64;86.27
64368;BME280;50692;53.314;-6.300;2023-07-20T03:50:20;101464.72;;;15.66;86.16
64368;BME280;50692;53.314;-6.300;2023-07-20T03:53:06;101467.28;;;15.67;86.32
64368;BME280;50692;53.314;-6.300;2023-07-20T03:55:52;101468.25;;;15.66;86.07
64368;BME280;50692;53.314;-6.300;2023-07-20T03:58:38;101469.00;;;15.68;86.25
64368;BME280;50692;53.314;-6.300;2023-07-20T04:01:24;101468.13;;;15.68;86.40
64368;BME280;50692;53.314;-6.300;2023-07-20T04:04:10;101467.44;;;15.64;86.33
64368;BME280;50692;53.314;-6.300;2023-07-20T04:06:56;101477.19;;;15.65;86.47
64368;BME280;50692;53.314;-6.300;2023-07-20T04:09:41;101469.19;;;15.65;86.49
64368;BME280;50692;53.314;-6.300;2023-07-20T04:12:27;101458.78;;;15.60;86.61
64368;BME280;50692;53.314;-6.300;2023-07-20T04:15:14;101465.59;;;15.66;86.32
64368;BME280;50692;53.314;-6.300;2023-07-20T04:18:00;101458.91;;;15.59;86.75
64368;BME280;50692;53.314;-6.300;2023-07-20T04:20:46;101467.06;;;15.56;87.07
64368;BME280;50692;53.314;-6.300;2023-07-20T04:23:32;101474.22;;;15.55;87.20
64368;BME280;50692;53.314;-6.300;2023-07-20T04:26:18;101472.09;;;15.60;87.05
64368;BME280;50692;53.314;-6.300;2023-07-20T04:29:04;101471.44;;;15.57;86.92
64368;BME280;50692;53.314;-6.300;2023-07-20T04:31:49;101468.03;;;15.55;87.15
64368;BME280;50692;53.314;-6.300;2023-07-20T04:34:35;101469.84;;;15.54;87.65
64368;BME280;50692;53.314;-6.300;2023-07-20T04:37:22;101472.28;;;15.57;87.38
64368;BME280;50692;53.314;-6.300;2023-07-20T04:40:08;101465.38;;;15.55;87.54
64368;BME280;50692;53.314;-6.300;2023-07-20T04:42:54;101468.03;;;15.55;87.80
64368;BME280;50692;53.314;-6.300;2023-07-20T04:45:41;101473.44;;;15.53;87.76
64368;BME280;50692;53.314;-6.300;2023-07-20T04:48:26;101464.78;;;15.50;87.86
64368;BME280;50692;53.314;-6.300;2023-07-20T04:51:12;101466.69;;;15.48;87.64
64368;BME280;50692;53.314;-6.300;2023-07-20T04:53:58;101465.84;;;15.47;87.69
64368;BME280;50692;53.314;-6.300;2023-07-20T04:56:44;101473.91;;;15.46;87.53
64368;BME280;50692;53.314;-6.300;2023-07-20T04:59:30;101465.06;;;15.45;87.50
64368;BME280;50692;53.314;-6.300;2023-07-20T05:02:15;101465.25;;;15.42;87.55
64368;BME280;50692;53.314;-6.300;2023-07-20T05:05:02;101462.78;;;15.39;87.55
64368;BME280;50692;53.314;-6.300;2023-07-20T05:07:50;101462.22;;;15.34;87.56
64368;BME280;50692;53.314;-6.300;2023-07-20T05:10:36;101461.06;;;15.38;87.31
64368;BME280;50692;53.314;-6.300;2023-07-20T05:13:23;101466.09;;;15.43;87.15
64368;BME280;50692;53.314;-6.300;2023-07-20T05:16:09;101466.28;;;15.40;87.23
64368;BME280;50692;53.314;-6.300;2023-07-20T05:18:55;101452.97;;;15.40;87.27
64368;BME280;50692;53.314;-6.300;2023-07-20T05:21:42;101460.59;;;15.46;87.02
64368;BME280;50692;53.314;-6.300;2023-07-20T05:24:28;101465.19;;;15.44;87.29
64368;BME280;50692;53.314;-6.300;2023-07-20T05:27:14;101456.22;;;15.45;87.38
64368;BME280;50692;53.314;-6.300;2023-07-20T05:30:00;101457.84;;;15.47;87.19
64368;BME280;50692;53.314;-6.300;2023-07-20T05:32:46;101452.41;;;15.49;87.38
64368;BME280;50692;53.314;-6.300;2023-07-20T05:35:37;101451.56;;;15.48;87.54
64368;BME280;50692;53.314;-6.300;2023-07-20T05:38:23;101450.53;;;15.51;87.44
64368;BME280;50692;53.314;-6.300;2023-07-20T05:41:08;101439.88;;;15.51;87.56
64368;BME280;50692;53.314;-6.300;2023-07-20T05:43:55;101443.47;;;15.50;87.34
64368;BME280;50692;53.314;-6.300;2023-07-20T05:46:41;101441.09;;;15.59;87.31
64368;BME280;50692;53.314;-6.300;2023-07-20T05:49:27;101447.28;;;15.60;87.24
64368;BME280;50692;53.314;-6.300;2023-07-20T05:52:13;101458.72;;;15.62;87.18
64368;BME280;50692;53.314;-6.300;2023-07-20T05:54:59;101443.66;;;15.61;87.13
64368;BME280;50692;53.314;-6.300;2023-07-20T05:57:44;101449.41;;;15.69;86.86
64368;BME280;50692;53.314;-6.300;2023-07-20T06:00:30;101445.47;;;15.75;86.43
64368;BME280;50692;53.314;-6.300;2023-07-20T06:03:16;101445.59;;;15.73;86.25
64368;BME280;50692;53.314;-6.300;2023-07-20T06:06:02;101444.81;;;15.71;85.96
64368;BME280;50692;53.314;-6.300;2023-07-20T06:08:49;101447.66;;;15.82;85.94
64368;BME280;50692;53.314;-6.300;2023-07-20T06:11:35;101444.91;;;15.84;85.51
64368;BME280;50692;53.314;-6.300;2023-07-20T06:14:22;101446.44;;;15.88;85.42
64368;BME280;50692;53.314;-6.300;2023-07-20T06:17:08;101444.31;;;15.93;85.30
64368;BME280;50692;53.314;-6.300;2023-07-20T06:19:53;101426.16;;;15.71;85.16
64368;BME280;50692;53.314;-6.300;2023-07-20T06:22:39;101453.34;;;16.05;84.90
64368;BME280;50692;53.314;-6.300;2023-07-20T06:25:25;101444.84;;;16.13;84.95
64368;BME280;50692;53.314;-6.300;2023-07-20T06:28:11;101442.84;;;16.16;84.82
64368;BME280;50692;53.314;-6.300;2023-07-20T06:31:01;101448.53;;;16.24;84.59
64368;BME280;50692;53.314;-6.300;2023-07-20T06:33:47;101454.63;;;16.26;84.13
64368;BME280;50692;53.314;-6.300;2023-07-20T06:36:32;101455.94;;;16.34;83.94
64368;BME280;50692;53.314;-6.300;2023-07-20T06:39:18;101455.72;;;16.37;83.57
64368;BME280;50692;53.314;-6.300;2023-07-20T06:42:04;101464.31;;;16.42;83.36
64368;BME280;50692;53.314;-6.300;2023-07-20T06:44:50;101470.59;;;16.41;82.81
64368;BME280;50692;53.314;-6.300;2023-07-20T06:47:39;101467.16;;;16.39;82.58
64368;BME280;50692;53.314;-6.300;2023-07-20T06:50:28;101473.03;;;16.44;82.28
64368;BME280;50692;53.314;-6.300;2023-07-20T06:53:14;101473.16;;;16.42;82.07
64368;BME280;50692;53.314;-6.300;2023-07-20T06:55:59;101471.34;;;16.43;81.78
64368;BME280;50692;53.314;-6.300;2023-07-20T06:58:45;101472.75;;;16.48;81.99
64368;BME280;50692;53.314;-6.300;2023-07-20T07:01:31;101471.63;;;16.65;81.49
64368;BME280;50692;53.314;-6.300;2023-07-20T07:04:17;101478.69;;;16.66;81.95
64368;BME280;50692;53.314;-6.300;2023-07-20T07:07:03;101481.06;;;16.71;81.68
64368;BME280;50692;53.314;-6.300;2023-07-20T07:09:49;101486.88;;;16.77;80.75
64368;BME280;50692;53.314;-6.300;2023-07-20T07:12:35;101491.72;;;16.71;80.57
64368;BME280;50692;53.314;-6.300;2023-07-20T07:15:23;101494.41;;;16.71;80.24
64368;BME280;50692;53.314;-6.300;2023-07-20T07:18:09;101481.72;;;16.74;79.82
64368;BME280;50692;53.314;-6.300;2023-07-20T07:20:55;101480.25;;;16.83;79.66
64368;BME280;50692;53.314;-6.300;2023-07-20T07:23:41;101489.06;;;16.98;78.95
64368;BME280;50692;53.314;-6.300;2023-07-20T07:26:27;101489.94;;;17.11;78.52
64368;BME280;50692;53.314;-6.300;2023-07-20T07:29:13;101486.44;;;17.23;78.13
64368;BME280;50692;53.314;-6.300;2023-07-20T07:32:00;101491.97;;;17.33;77.62
64368;BME280;50692;53.314;-6.300;2023-07-20T07:34:47;101487.63;;;17.45;76.70
64368;BME280;50692;53.314;-6.300;2023-07-20T07:37:33;101485.38;;;17.52;76.38
64368;BME280;50692;53.314;-6.300;2023-07-20T07:40:18;101478.75;;;17.57;75.65
64368;BME280;50692;53.314;-6.300;2023-07-20T07:43:04;101484.94;;;17.70;75.31
64368;BME280;50692;53.314;-6.300;2023-07-20T07:45:53;101477.66;;;17.85;73.97
64368;BME280;50692;53.314;-6.300;2023-07-20T07:48:39;101482.25;;;17.96;72.82
64368;BME280;50692;53.314;-6.300;2023-07-20T07:51:25;101471.56;;;17.96;71.61
64368;BME280;50692;53.314;-6.300;2023-07-20T07:54:12;101476.91;;;17.96;71.40
64368;BME280;50692;53.314;-6.300;2023-07-20T07:56:58;101469.94;;;17.93;71.21
64368;BME280;50692;53.314;-6.300;2023-07-20T07:59:44;101475.06;;;17.96;71.48
64368;BME280;50692;53.314;-6.300;2023-07-20T08:02:30;101473.78;;;18.02;70.80
64368;BME280;50692;53.314;-6.300;2023-07-20T08:05:16;101477.72;;;18.09;70.24
64368;BME280;50692;53.314;-6.300;2023-07-20T08:08:03;101468.94;;;18.20;69.75
64368;BME280;50692;53.314;-6.300;2023-07-20T08:10:54;101474.84;;;18.36;69.48
64368;BME280;50692;53.314;-6.300;2023-07-20T08:13:40;101471.38;;;18.47;69.08
64368;BME280;50692;53.314;-6.300;2023-07-20T08:16:27;101450.41;;;18.41;67.71
64368;BME280;50692;53.314;-6.300;2023-07-20T08:19:13;101471.72;;;18.66;67.12
64368;BME280;50692;53.314;-6.300;2023-07-20T08:21:59;101467.69;;;18.85;67.15
64368;BME280;50692;53.314;-6.300;2023-07-20T08:24:45;101465.75;;;18.98;65.75
64368;BME280;50692;53.314;-6.300;2023-07-20T08:27:31;101454.22;;;19.09;64.44
64368;BME280;50692;53.314;-6.300;2023-07-20T08:30:17;101455.50;;;19.27;64.14
64368;BME280;50692;53.314;-6.300;2023-07-20T08:33:02;101454.50;;;19.28;64.13
64368;BME280;50692;53.314;-6.300;2023-07-20T08:35:49;101467.94;;;19.39;63.17
64368;BME280;50692;53.314;-6.300;2023-07-20T08:38:34;101466.94;;;19.52;62.01
64368;BME280;50692;53.314;-6.300;2023-07-20T08:41:20;101463.59;;;19.72;61.88
64368;BME280;50692;53.314;-6.300;2023-07-20T08:44:06;101473.69;;;19.80;60.91
64368;BME280;50692;53.314;-6.300;2023-07-20T08:46:53;101467.00;;;19.97;59.93
64368;BME280;50692;53.314;-6.300;2023-07-20T08:49:39;101465.66;;;20.02;59.02
64368;BME280;50692;53.314;-6.300;2023-07-20T08:52:26;101461.97;;;20.15;57.81
64368;BME280;50692;53.314;-6.300;2023-07-20T08:55:12;101463.53;;;20.28;57.57
64368;BME280;50692;53.314;-6.300;2023-07-20T08:58:00;101460.94;;;20.38;57.33
64368;BME280;50692;53.314;-6.300;2023-07-20T09:00:46;101458.31;;;20.48;57.18
64368;BME280;50692;53.314;-6.300;2023-07-20T09:03:32;101462.19;;;20.66;56.88
64368;BME280;50692;53.314;-6.300;2023-07-20T09:06:18;101451.94;;;20.92;56.28
64368;BME280;50692;53.314;-6.300;2023-07-20T09:09:03;101448.53;;;21.11;55.51
64368;BME280;50692;53.314;-6.300;2023-07-20T09:11:50;101452.00;;;21.23;54.63
64368;BME280;50692;53.314;-6.300;2023-07-20T09:14:37;101448.72;;;21.40;53.37
64368;BME280;50692;53.314;-6.300;2023-07-20T09:17:25;101453.31;;;21.49;52.29
64368;BME280;50692;53.314;-6.300;2023-07-20T09:20:11;101442.19;;;21.64;52.08
64368;BME280;50692;53.314;-6.300;2023-07-20T09:22:57;101443.25;;;21.82;50.64
64368;BME280;50692;53.314;-6.300;2023-07-20T09:25:43;101439.59;;;21.93;50.77
64368;BME280;50692;53.314;-6.300;2023-07-20T09:28:41;101431.53;;;22.02;50.58
64368;BME280;50692;53.314;-6.300;2023-07-20T09:31:28;101437.59;;;21.95;50.63
64368;BME280;50692;53.314;-6.300;2023-07-20T09:34:13;101439.47;;;22.04;49.71
64368;BME280;50692;53.314;-6.300;2023-07-20T09:36:59;101440.28;;;21.95;49.73
64368;BME280;50692;53.314;-6.300;2023-07-20T09:39:46;101434.72;;;21.77;49.55
64368;BME280;50692;53.314;-6.300;2023-07-20T09:42:32;101439.50;;;21.64;49.79
64368;BME280;50692;53.314;-6.300;2023-07-20T09:45:17;101428.06;;;21.41;50.05
64368;BME280;50692;53.314;-6.300;2023-07-20T09:48:05;101433.91;;;21.25;50.47
64368;BME280;50692;53.314;-6.300;2023-07-20T09:50:53;101419.22;;;21.08;51.35
64368;BME280;50692;53.314;-6.300;2023-07-20T09:53:39;101439.00;;;20.65;55.81
64368;BME280;50692;53.314;-6.300;2023-07-20T09:56:26;101430.53;;;20.37;59.36
64368;BME280;50692;53.314;-6.300;2023-07-20T09:59:12;101431.19;;;20.19;61.44
64368;BME280;50692;53.314;-6.300;2023-07-20T10:02:01;101425.63;;;20.10;61.91
64368;BME280;50692;53.314;-6.300;2023-07-20T10:04:49;101425.41;;;20.02;62.27
64368;BME280;50692;53.314;-6.300;2023-07-20T10:07:44;101428.19;;;20.01;63.30
64368;BME280;50692;53.314;-6.300;2023-07-20T10:10:33;101435.25;;;20.02;63.93
64368;BME280;50692;53.314;-6.300;2023-07-20T10:13:26;101426.00;;;20.06;62.30
64368;BME280;50692;53.314;-6.300;2023-07-20T10:16:26;101423.94;;;20.09;61.83
64368;BME280;50692;53.314;-6.300;2023-07-20T10:19:23;101418.88;;;20.16;60.08
64368;BME280;50692;53.314;-6.300;2023-07-20T10:22:14;101425.63;;;20.10;61.23
64368;BME280;50692;53.314;-6.300;2023-07-20T10:25:01;101428.06;;;20.13;61.43
64368;BME280;50692;53.314;-6.300;2023-07-20T10:27:48;101420.84;;;20.14;61.78
64368;BME280;50692;53.314;-6.300;2023-07-20T10:30:34;101429.84;;;20.24;61.16
64368;BME280;50692;53.314;-6.300;2023-07-20T10:33:21;101429.00;;;20.24;60.96
64368;BME280;50692;53.314;-6.300;2023-07-20T10:36:07;101425.28;;;20.36;60.85
64368;BME280;50692;53.314;-6.300;2023-07-20T10:38:55;101430.63;;;20.47;61.40
64368;BME280;50692;53.314;-6.300;2023-07-20T10:41:42;101423.03;;;20.64;61.22
64368;BME280;50692;53.314;-6.300;2023-07-20T10:44:27;101430.38;;;20.82;60.22
64368;BME280;50692;53.314;-6.300;2023-07-20T10:47:13;101392.44;;;20.76;58.85
64368;BME280;50692;53.314;-6.300;2023-07-20T10:50:00;101425.41;;;20.78;58.03
64368;BME280;50692;53.314;-6.300;2023-07-20T10:53:04;101424.38;;;20.58;56.71
64368;BME280;50692;53.314;-6.300;2023-07-20T10:56:06;101432.75;;;20.32;58.67
64368;BME280;50692;53.314;-6.300;2023-07-20T10:58:57;101439.41;;;20.06;61.19
64368;BME280;50692;53.314;-6.300;2023-07-20T11:01:44;101429.19;;;19.88;62.85
64368;BME280;50692;53.314;-6.300;2023-07-20T11:04:40;101431.28;;;19.85;64.37
64368;BME280;50692;53.314;-6.300;2023-07-20T11:07:37;101430.31;;;19.75;65.05
64368;BME280;50692;53.314;-6.300;2023-07-20T11:10:26;101429.22;;;19.77;65.32
64368;BME280;50692;53.314;-6.300;2023-07-20T11:13:21;101426.88;;;19.84;66.28
64368;BME280;50692;53.314;-6.300;2023-07-20T11:16:08;101429.81;;;19.92;64.98
64368;BME280;50692;53.314;-6.300;2023-07-20T11:18:55;101427.31;;;20.11;63.17
64368;BME280;50692;53.314;-6.300;2023-07-20T11:21:43;101421.34;;;20.51;61.83
64368;BME280;50692;53.314;-6.300;2023-07-20T11:24:30;101422.97;;;20.96;59.70
64368;BME280;50692;53.314;-6.300;2023-07-20T11:27:16;101407.72;;;21.27;56.96
64368;BME280;50692;53.314;-6.300;2023-07-20T11:30:04;101413.63;;;21.42;55.28
64368;BME280;50692;53.314;-6.300;2023-07-20T11:32:50;101409.81;;;21.44;54.64
64368;BME280;50692;53.314;-6.300;2023-07-20T11:35:42;101406.34;;;21.32;54.55
64368;BME280;50692;53.314;-6.300;2023-07-20T11:38:28;101406.38;;;21.12;53.32
64368;BME280;50692;53.314;-6.300;2023-07-20T11:41:14;101408.28;;;21.00;52.91
64368;BME280;50692;53.314;-6.300;2023-07-20T11:44:03;101407.53;;;20.88;52.28
64368;BME280;50692;53.314;-6.300;2023-07-20T11:46:49;101405.13;;;20.95;51.66
64368;BME280;50692;53.314;-6.300;2023-07-20T11:49:36;101405.25;;;21.35;51.05
64368;BME280;50692;53.314;-6.300;2023-07-20T11:52:23;101407.41;;;21.82;49.30
64368;BME280;50692;53.314;-6.300;2023-07-20T11:55:10;101397.31;;;22.24;46.76
64368;BME280;50692;53.314;-6.300;2023-07-20T11:58:15;101389.94;;;22.45;44.64
64368;BME280;50692;53.314;-6.300;2023-07-20T12:01:02;101392.50;;;22.57;44.47
64368;BME280;50692;53.314;-6.300;2023-07-20T12:03:49;101390.38;;;22.60;43.51
64368;BME280;50692;53.314;-6.300;2023-07-20T12:06:35;101391.63;;;22.75;43.36
64368;BME280;50692;53.314;-6.300;2023-07-20T12:09:22;101388.78;;;22.96;43.47
64368;BME280;50692;53.314;-6.300;2023-07-20T12:12:12;101382.56;;;23.33;42.88
64368;BME280;50692;53.314;-6.300;2023-07-20T12:18:06;101360.81;;;23.72;41.46
64368;BME280;50692;53.314;-6.300;2023-07-20T12:20:59;101367.84;;;23.55;42.38
64368;BME280;50692;53.314;-6.300;2023-07-20T12:23:45;101360.88;;;23.25;42.82
64368;BME280;50692;53.314;-6.300;2023-07-20T12:26:32;101363.06;;;23.02;43.46
64368;BME280;50692;53.314;-6.300;2023-07-20T12:29:18;101364.13;;;22.72;44.46
64368;BME280;50692;53.314;-6.300;2023-07-20T12:32:04;101358.78;;;22.43;44.74
64368;BME280;50692;53.314;-6.300;2023-07-20T12:34:50;101364.44;;;22.30;45.13
64368;BME280;50692;53.314;-6.300;2023-07-20T12:37:37;101365.38;;;22.10;44.37
64368;BME280;50692;53.314;-6.300;2023-07-20T12:40:23;101359.28;;;21.98;44.58
64368;BME280;50692;53.314;-6.300;2023-07-20T12:43:09;101366.09;;;21.92;44.84
64368;BME280;50692;53.314;-6.300;2023-07-20T12:45:56;101365.22;;;21.82;44.55
64368;BME280;50692;53.314;-6.300;2023-07-20T12:48:41;101361.66;;;21.82;44.87
64368;BME280;50692;53.314;-6.300;2023-07-20T12:51:27;101360.53;;;21.84;45.12
64368;BME280;50692;53.314;-6.300;2023-07-20T12:54:13;101349.06;;;21.92;45.73
64368;BME280;50692;53.314;-6.300;2023-07-20T12:56:59;101354.31;;;22.13;44.70
64368;BME280;50692;53.314;-6.300;2023-07-20T12:59:45;101357.16;;;22.11;44.24
64368;BME280;50692;53.314;-6.300;2023-07-20T13:02:32;101354.03;;;21.96;44.08
64368;BME280;50692;53.314;-6.300;2023-07-20T13:05:18;101353.88;;;21.98;44.15
64368;BME280;50692;53.314;-6.300;2023-07-20T13:08:04;101348.81;;;22.04;44.29
64368;BME280;50692;53.314;-6.300;2023-07-20T13:10:50;101343.31;;;22.16;43.38
64368;BME280;50692;53.314;-6.300;2023-07-20T13:13:37;101344.81;;;21.99;42.96
64368;BME280;50692;53.314;-6.300;2023-07-20T13:16:22;101347.06;;;21.84;43.00
64368;BME280;50692;53.314;-6.300;2023-07-20T13:19:08;101349.00;;;21.63;42.94
64368;BME280;50692;53.314;-6.300;2023-07-20T13:21:54;101352.91;;;21.39;43.32
64368;BME280;50692;53.314;-6.300;2023-07-20T13:24:44;101346.59;;;21.29;43.26
64368;BME280;50692;53.314;-6.300;2023-07-20T13:27:32;101335.69;;;21.30;43.92
64368;BME280;50692;53.314;-6.300;2023-07-20T13:30:18;101340.22;;;21.30;44.65
64368;BME280;50692;53.314;-6.300;2023-07-20T13:33:04;101352.50;;;21.23;45.34
64368;BME280;50692;53.314;-6.300;2023-07-20T13:35:50;101345.97;;;21.16;46.79
64368;BME280;50692;53.314;-6.300;2023-07-20T13:38:36;101344.19;;;21.26;46.95
64368;BME280;50692;53.314;-6.300;2023-07-20T13:41:22;101348.50;;;21.38;47.12
64368;BME280;50692;53.314;-6.300;2023-07-20T13:44:08;101349.66;;;21.36;47.28
64368;BME280;50692;53.314;-6.300;2023-07-20T13:46:53;101345.75;;;21.28;47.11
64368;BME280;50692;53.314;-6.300;2023-07-20T13:49:39;101348.56;;;21.27;47.47
64368;BME280;50692;53.314;-6.300;2023-07-20T13:52:25;101350.09;;;21.20;47.80
64368;BME280;50692;53.314;-6.300;2023-07-20T13:55:14;101349.84;;;20.92;48.95
64368;BME280;50692;53.314;-6.300;2023-07-20T13:58:00;101351.16;;;20.56;50.17
64368;BME280;50692;53.314;-6.300;2023-07-20T14:00:46;101352.13;;;20.23;52.08
64368;BME280;50692;53.314;-6.300;2023-07-20T14:03:32;101355.69;;;20.12;54.64
64368;BME280;50692;53.314;-6.300;2023-07-20T14:06:17;101355.34;;;20.05;55.50
64368;BME280;50692;53.314;-6.300;2023-07-20T14:09:04;101358.09;;;19.83;56.07
64368;BME280;50692;53.314;-6.300;2023-07-20T14:11:49;101359.84;;;19.73;56.24
64368;BME280;50692;53.314;-6.300;2023-07-20T14:14:35;101353.00;;;19.69;56.05
64368;BME280;50692;53.314;-6.300;2023-07-20T14:17:21;101360.34;;;19.67;55.89
64368;BME280;50692;53.314;-6.300;2023-07-20T14:20:07;101351.06;;;19.71;55.55
64368;BME280;50692;53.314;-6.300;2023-07-20T14:22:53;101348.38;;;19.82;54.97
64368;BME280;50692;53.314;-6.300;2023-07-20T14:25:40;101345.19;;;19.88;54.30
64368;BME280;50692;53.314;-6.300;2023-07-20T14:28:26;101340.00;;;20.07;53.48
64368;BME280;50692;53.314;-6.300;2023-07-20T14:31:11;101347.28;;;20.17;53.27